Time;durP1;ratioP1;P1;durP2;ratioP2;P2;SDS_P1;SDS_P2;PMS_P1;PMS_P2;Temp;Humidity;BMP_temperature;BMP_pressure;BME280_temperature;BME280_humidity;BME280_pressure;Samples;Min_cycle;Max_cycle;Signal;HPM_P1;HPM_P2
2023/10/23 00:00:40;;;;;;;9.25;5.95;;;;;;;;;;5090967;28;20062;-68
2023/10/23 00:03:06;;;;;;;9.75;5.97;;;;;;;;;;5090462;28;20032;-68
2023/10/23 00:05:31;;;;;;;10.85;6.18;;;;;;;;;;5090659;28;20353;-67
2023/10/23 00:07:57;;;;;;;9.13;6.30;;;;;;;;;;5091187;28;20023;-68
2023/10/23 00:10:22;;;;;;;8.32;6.30;;;;;;;;;;5090435;28;20488;-68
2023/10/23 00:12:48;;;;;;;14.52;6.50;;;;;;;;;;5071667;28;20047;-67
2023/10/23 00:15:13;;;;;;;12.48;6.90;;;;;;;;;;5091076;28;20062;-68
2023/10/23 00:17:39;;;;;;;11.98;6.50;;;;;;;;;;5090143;28;20039;-67
2023/10/23 00:20:05;;;;;;;10.45;6.03;;;;;;;;;;5093728;28;20034;-67
2023/10/23 00:22:31;;;;;;;11.07;6.70;;;;;;;;;;5103897;28;20039;-67
2023/10/23 00:24:56;;;;;;;11.10;6.50;;;;;;;;;;5095838;28;20048;-67
2023/10/23 00:27:21;;;;;;;12.43;7.43;;;;;;;;;;5087962;28;20043;-68
2023/10/23 00:29:47;;;;;;;9.40;5.63;;;;;;;;;;5100676;28;20023;-68
2023/10/23 00:32:12;;;;;;;11.75;6.45;;;;;;;;;;5101299;28;20032;-67
2023/10/23 00:34:37;;;;;;;11.57;6.68;;;;;;;;;;5072338;28;20040;-68
2023/10/23 00:37:03;;;;;;;12.00;6.88;;;;;;;;;;5090673;28;20029;-67
2023/10/23 00:39:29;;;;;;;11.25;6.40;;;;;;;;;;5095582;28;21728;-68
2023/10/23 00:41:54;;;;;;;10.25;6.60;;;;;;;;;;5094546;28;20376;-68
2023/10/23 00:44:19;;;;;;;9.60;6.10;;;;;;;;;;5096939;28;20423;-68
2023/10/23 00:46:45;;;;;;;9.02;6.15;;;;;;;;;;5093889;28;20422;-67
2023/10/23 00:49:11;;;;;;;13.80;6.70;;;;;;;;;;5094596;28;20024;-68
2023/10/23 00:51:37;;;;;;;11.63;6.55;;;;;;;;;;5093282;28;20089;-68
2023/10/23 00:54:03;;;;;;;10.48;6.28;;;;;;;;;;5092751;28;20028;-67
2023/10/23 00:56:29;;;;;;;11.40;7.10;;;;;;;;;;5094187;28;20086;-67
2023/10/23 00:58:57;;;;;;;12.60;6.88;;;;;;;;;;5092893;28;20056;-68
2023/10/23 01:01:22;;;;;;;10.85;6.30;;;;;;;;;;5093321;28;20040;-67
2023/10/23 01:03:48;;;;;;;11.00;6.47;;;;;;;;;;5092966;28;20388;-67
2023/10/23 01:06:13;;;;;;;11.15;6.70;;;;;;;;;;5093865;28;20141;-67
2023/10/23 01:08:39;;;;;;;12.82;6.35;;;;;;;;;;5094756;28;20393;-68
2023/10/23 01:11:05;;;;;;;14.20;6.38;;;;;;;;;;5097196;28;20368;-68
2023/10/23 01:13:30;;;;;;;15.68;7.20;;;;;;;;;;5093413;28;20469;-68
2023/10/23 01:15:56;;;;;;;12.80;7.10;;;;;;;;;;5075809;28;20402;-68
2023/10/23 01:18:21;;;;;;;14.68;6.80;;;;;;;;;;5094548;28;20032;-67
2023/10/23 01:20:47;;;;;;;12.63;6.88;;;;;;;;;;5100293;28;20027;-67
2023/10/23 01:23:13;;;;;;;12.90;6.90;;;;;;;;;;5098988;28;20044;-67
2023/10/23 01:25:38;;;;;;;13.57;6.03;;;;;;;;;;5105079;28;20119;-67
2023/10/23 01:28:04;;;;;;;12.90;5.95;;;;;;;;;;5092484;28;20118;-67
2023/10/23 01:30:30;;;;;;;13.00;6.40;;;;;;;;;;5095481;28;20040;-68
2023/10/23 01:32:56;;;;;;;13.32;6.57;;;;;;;;;;5106149;28;20027;-67
2023/10/23 01:35:22;;;;;;;12.82;5.80;;;;;;;;;;5097453;28;20384;-68
2023/10/23 01:37:47;;;;;;;9.60;5.72;;;;;;;;;;5091359;28;20257;-67
2023/10/23 01:40:13;;;;;;;11.18;5.80;;;;;;;;;;5093544;28;20395;-67
2023/10/23 01:42:40;;;;;;;9.38;5.22;;;;;;;;;;5093833;28;20028;-67
2023/10/23 01:45:06;;;;;;;10.27;5.60;;;;;;;;;;5095244;28;20487;-67
2023/10/23 01:47:31;;;;;;;13.85;5.00;;;;;;;;;;5093152;28;20034;-67
2023/10/23 01:49:57;;;;;;;9.27;4.50;;;;;;;;;;5102619;28;20040;-67
2023/10/23 01:52:22;;;;;;;10.70;4.75;;;;;;;;;;5108981;28;20527;-67
2023/10/23 01:54:50;;;;;;;9.23;4.88;;;;;;;;;;5091281;28;20043;-67
2023/10/23 01:57:16;;;;;;;7.43;4.68;;;;;;;;;;5093565;28;20028;-68
2023/10/23 01:59:41;;;;;;;8.68;4.60;;;;;;;;;;5093656;28;20034;-67
2023/10/23 02:02:07;;;;;;;8.73;4.60;;;;;;;;;;5092203;28;20054;-67
2023/10/23 02:04:34;;;;;;;10.80;4.57;;;;;;;;;;5092176;28;20423;-67
2023/10/23 02:07:00;;;;;;;9.15;4.50;;;;;;;;;;5090755;28;20032;-67
2023/10/23 02:09:26;;;;;;;9.23;4.82;;;;;;;;;;5091194;28;20135;-67
2023/10/23 02:11:51;;;;;;;7.40;4.28;;;;;;;;;;5074213;28;20482;-67
2023/10/23 02:14:17;;;;;;;8.85;4.63;;;;;;;;;;5091921;28;20101;-68
2023/10/23 02:16:42;;;;;;;8.27;4.10;;;;;;;;;;5074134;28;20534;-67
2023/10/23 02:19:11;;;;;;;7.40;3.92;;;;;;;;;;5073262;28;20039;-67
2023/10/23 02:21:36;;;;;;;8.75;4.22;;;;;;;;;;5077784;28;20126;-68
2023/10/23 02:24:02;;;;;;;8.68;4.70;;;;;;;;;;5108457;28;20122;-67
2023/10/23 02:26:28;;;;;;;8.90;4.78;;;;;;;;;;5098255;28;20034;-68
2023/10/23 02:28:54;;;;;;;10.75;4.70;;;;;;;;;;5102630;28;20464;-67
2023/10/23 02:31:19;;;;;;;8.80;4.63;;;;;;;;;;5081095;28;20038;-67
2023/10/23 02:33:45;;;;;;;9.13;4.43;;;;;;;;;;5109620;28;20035;-67
2023/10/23 02:36:11;;;;;;;8.45;5.13;;;;;;;;;;5091225;28;20828;-68
2023/10/23 02:38:36;;;;;;;8.30;4.95;;;;;;;;;;5091025;28;20036;-67
2023/10/23 02:41:02;;;;;;;12.20;4.93;;;;;;;;;;5091004;28;20461;-67
2023/10/23 02:43:27;;;;;;;8.13;4.97;;;;;;;;;;5092911;28;20063;-68
2023/10/23 02:45:52;;;;;;;20.60;5.20;;;;;;;;;;5103448;28;20031;-68
2023/10/23 02:48:18;;;;;;;8.90;4.78;;;;;;;;;;5074487;28;20071;-68
2023/10/23 02:50:53;;;;;;;9.23;4.95;;;;;;;;;;5091225;28;20460;-67
2023/10/23 02:53:19;;;;;;;14.20;4.90;;;;;;;;;;5093420;28;20032;-69
2023/10/23 02:55:44;;;;;;;8.73;4.90;;;;;;;;;;5090870;28;20089;-68
2023/10/23 02:58:10;;;;;;;9.85;4.68;;;;;;;;;;5090004;28;20634;-67
2023/10/23 03:00:35;;;;;;;7.10;4.53;;;;;;;;;;5092633;28;20036;-67
2023/10/23 03:03:00;;;;;;;11.15;5.00;;;;;;;;;;5103699;28;20098;-67
2023/10/23 03:05:26;;;;;;;8.80;5.20;;;;;;;;;;5094540;28;20032;-67
2023/10/23 03:07:51;;;;;;;10.85;5.13;;;;;;;;;;5091234;28;20028;-66
2023/10/23 03:10:17;;;;;;;13.82;5.55;;;;;;;;;;5090567;28;20032;-67
2023/10/23 03:12:42;;;;;;;14.68;5.72;;;;;;;;;;5092185;28;20028;-68
2023/10/23 03:15:08;;;;;;;12.80;5.80;;;;;;;;;;5101048;28;20526;-67
2023/10/23 03:17:33;;;;;;;11.95;5.60;;;;;;;;;;5103020;28;20032;-69
2023/10/23 03:19:59;;;;;;;10.88;5.57;;;;;;;;;;5099018;28;20031;-67
2023/10/23 03:22:24;;;;;;;10.75;5.13;;;;;;;;;;5109715;28;20044;-68
2023/10/23 03:24:49;;;;;;;12.40;6.30;;;;;;;;;;5081065;28;20048;-68
2023/10/23 03:27:15;;;;;;;12.32;6.05;;;;;;;;;;5089925;28;20169;-68
2023/10/23 03:29:43;;;;;;;11.40;6.45;;;;;;;;;;5091049;28;20062;-67
2023/10/23 03:32:09;;;;;;;11.35;5.40;;;;;;;;;;5089760;28;20132;-67
2023/10/23 03:34:35;;;;;;;12.23;6.03;;;;;;;;;;5090811;28;20040;-68
2023/10/23 03:37:00;;;;;;;13.50;6.00;;;;;;;;;;5070275;28;20039;-69
2023/10/23 03:39:26;;;;;;;9.82;5.15;;;;;;;;;;5089136;28;20035;-68
2023/10/23 03:41:51;;;;;;;13.32;5.80;;;;;;;;;;5089343;28;20024;-68
2023/10/23 03:44:17;;;;;;;9.15;4.88;;;;;;;;;;5090121;28;20031;-68
2023/10/23 03:46:42;;;;;;;11.82;5.10;;;;;;;;;;5094374;28;20423;-67
2023/10/23 03:49:08;;;;;;;11.82;5.72;;;;;;;;;;5089250;28;20035;-68
2023/10/23 03:51:33;;;;;;;15.65;5.75;;;;;;;;;;5097364;28;20062;-68
2023/10/23 03:53:59;;;;;;;12.90;5.90;;;;;;;;;;5108355;28;20058;-68
2023/10/23 03:56:24;;;;;;;16.30;6.50;;;;;;;;;;5110220;28;20123;-68
2023/10/23 03:58:50;;;;;;;16.02;6.55;;;;;;;;;;5093620;28;20038;-67
2023/10/23 04:01:15;;;;;;;13.55;6.70;;;;;;;;;;5095276;28;20632;-68
2023/10/23 04:03:40;;;;;;;14.98;6.15;;;;;;;;;;5090773;28;20101;-67
2023/10/23 04:06:06;;;;;;;14.50;5.78;;;;;;;;;;5075522;28;20073;-68
2023/10/23 04:08:31;;;;;;;10.10;5.32;;;;;;;;;;5109765;28;20023;-67
2023/10/23 04:10:58;;;;;;;11.65;5.47;;;;;;;;;;5096713;28;20073;-68
2023/10/23 04:13:24;;;;;;;10.48;5.07;;;;;;;;;;5090405;28;20539;-67
2023/10/23 04:16:08;;;;;;;18.30;6.32;;;;;;;;;;5094621;28;20036;-68
2023/10/23 04:18:33;;;;;;;11.02;5.43;;;;;;;;;;5077578;28;20075;-67
2023/10/23 04:21:10;;;;;;;12.20;4.95;;;;;;;;;;5094386;28;20484;-68
2023/10/23 04:23:37;;;;;;;11.15;5.00;;;;;;;;;;5110932;28;20555;-68
2023/10/23 04:26:03;;;;;;;9.43;4.85;;;;;;;;;;5101762;28;20085;-68
2023/10/23 04:28:30;;;;;;;11.00;4.93;;;;;;;;;;5097387;28;20040;-68
2023/10/23 04:30:56;;;;;;;8.57;4.68;;;;;;;;;;5076902;28;20028;-68
2023/10/23 04:33:22;;;;;;;11.63;4.72;;;;;;;;;;5094217;28;20076;-68
2023/10/23 04:35:51;;;;;;;8.55;4.72;;;;;;;;;;5076230;28;20066;-68
2023/10/23 04:38:17;;;;;;;9.80;4.85;;;;;;;;;;5106795;28;20165;-68
2023/10/23 04:40:44;;;;;;;10.20;4.90;;;;;;;;;;5113176;28;20107;-68
2023/10/23 04:43:12;;;;;;;13.30;4.90;;;;;;;;;;5096369;28;20479;-68
2023/10/23 04:45:38;;;;;;;9.82;4.07;;;;;;;;;;5077874;28;20028;-68
2023/10/23 04:48:08;;;;;;;10.65;4.57;;;;;;;;;;5075833;28;20035;-68
2023/10/23 04:50:34;;;;;;;8.25;4.47;;;;;;;;;;5094770;28;20111;-68
2023/10/23 04:53:00;;;;;;;10.98;4.70;;;;;;;;;;5092367;28;20478;-68
2023/10/23 04:55:26;;;;;;;10.20;4.45;;;;;;;;;;5094187;28;20039;-68
2023/10/23 04:57:51;;;;;;;10.85;4.50;;;;;;;;;;5101540;28;20038;-67
2023/10/23 05:00:19;;;;;;;10.20;4.95;;;;;;;;;;5100017;28;20027;-68
2023/10/23 05:02:46;;;;;;;10.57;4.80;;;;;;;;;;5093089;28;20081;-68
2023/10/23 05:05:11;;;;;;;8.43;4.28;;;;;;;;;;5094090;28;20032;-67
2023/10/23 05:07:37;;;;;;;10.88;4.53;;;;;;;;;;5089978;28;20042;-68
2023/10/23 05:10:04;;;;;;;7.72;4.50;;;;;;;;;;5092564;28;20522;-68
2023/10/23 05:12:29;;;;;;;9.52;5.38;;;;;;;;;;5093441;28;20036;-67
2023/10/23 05:14:55;;;;;;;12.02;4.60;;;;;;;;;;5093849;28;20504;-67
2023/10/23 05:17:21;;;;;;;9.75;4.80;;;;;;;;;;5106874;28;20097;-67
2023/10/23 05:19:47;;;;;;;9.63;5.18;;;;;;;;;;5094478;28;20024;-67
2023/10/23 05:22:13;;;;;;;11.80;4.97;;;;;;;;;;5092433;28;20530;-67
2023/10/23 05:24:38;;;;;;;14.60;5.53;;;;;;;;;;5092600;28;20051;-67
2023/10/23 05:27:03;;;;;;;9.20;4.90;;;;;;;;;;5109865;28;20028;-67
2023/10/23 05:29:29;;;;;;;9.85;5.15;;;;;;;;;;5102804;28;20024;-66
2023/10/23 05:31:54;;;;;;;8.38;4.88;;;;;;;;;;5114613;28;20063;-66
2023/10/23 05:34:20;;;;;;;8.95;5.05;;;;;;;;;;5100150;28;20059;-67
2023/10/23 05:36:45;;;;;;;11.52;5.07;;;;;;;;;;5093826;28;20024;-66
2023/10/23 05:39:10;;;;;;;12.95;5.72;;;;;;;;;;5093383;28;20457;-67
2023/10/23 05:41:36;;;;;;;16.10;5.97;;;;;;;;;;5094873;28;20107;-67
2023/10/23 05:44:01;;;;;;;10.30;5.18;;;;;;;;;;5092176;28;20465;-67
2023/10/23 05:46:27;;;;;;;10.45;5.10;;;;;;;;;;5096154;28;20344;-67
2023/10/23 05:48:52;;;;;;;10.20;5.45;;;;;;;;;;5075216;28;20032;-67
2023/10/23 05:51:18;;;;;;;9.25;5.65;;;;;;;;;;5073838;28;21032;-67
2023/10/23 05:53:43;;;;;;;12.55;5.82;;;;;;;;;;5093100;28;20116;-66
2023/10/23 05:56:09;;;;;;;10.05;6.20;;;;;;;;;;5091972;28;20362;-67
2023/10/23 05:58:35;;;;;;;13.32;6.65;;;;;;;;;;5074378;28;20426;-67
2023/10/23 06:01:08;;;;;;;15.93;6.43;;;;;;;;;;5073506;28;20032;-66
2023/10/23 06:03:34;;;;;;;14.93;7.20;;;;;;;;;;5093432;28;20427;-66
2023/10/23 06:05:59;;;;;;;17.13;9.32;;;;;;;;;;5092317;28;20035;-67
2023/10/23 06:08:25;;;;;;;13.57;7.50;;;;;;;;;;5072540;28;20028;-66
2023/10/23 06:10:51;;;;;;;14.30;7.75;;;;;;;;;;5092855;28;20035;-66
2023/10/23 06:13:16;;;;;;;19.33;7.45;;;;;;;;;;5091785;28;20377;-66
2023/10/23 06:15:42;;;;;;;16.23;6.97;;;;;;;;;;5091482;28;20105;-66
2023/10/23 06:18:07;;;;;;;11.55;6.80;;;;;;;;;;5091544;28;20088;-67
2023/10/23 06:20:33;;;;;;;13.80;7.32;;;;;;;;;;5092841;28;20179;-67
2023/10/23 06:22:59;;;;;;;14.77;7.28;;;;;;;;;;5092956;28;20046;-66
2023/10/23 06:25:26;;;;;;;12.20;7.05;;;;;;;;;;5092955;28;20032;-67
2023/10/23 06:27:52;;;;;;;13.85;7.32;;;;;;;;;;5105577;28;20023;-67
2023/10/23 06:30:17;;;;;;;13.68;7.60;;;;;;;;;;5093030;28;20362;-67
2023/10/23 06:32:43;;;;;;;13.48;6.88;;;;;;;;;;5104526;28;20365;-66
2023/10/23 06:35:08;;;;;;;14.52;6.60;;;;;;;;;;5057461;28;20036;-67
2023/10/23 06:37:34;;;;;;;12.55;6.65;;;;;;;;;;5095713;28;20026;-67
2023/10/23 06:39:59;;;;;;;15.23;6.53;;;;;;;;;;5076858;28;20456;-67
2023/10/23 06:42:26;;;;;;;13.25;6.95;;;;;;;;;;5105681;28;20120;-67
2023/10/23 06:44:51;;;;;;;13.65;7.00;;;;;;;;;;5081910;28;20028;-67
2023/10/23 06:47:17;;;;;;;16.23;7.20;;;;;;;;;;5098562;28;20027;-67
2023/10/23 06:49:45;;;;;;;20.83;7.80;;;;;;;;;;5074797;28;20110;-67
2023/10/23 06:52:11;;;;;;;16.70;7.55;;;;;;;;;;5091367;28;20499;-67
2023/10/23 06:54:37;;;;;;;17.85;7.70;;;;;;;;;;5110093;28;20132;-67
2023/10/23 06:57:08;;;;;;;19.70;8.20;;;;;;;;;;5112967;28;20436;-66
2023/10/23 06:59:34;;;;;;;13.38;7.13;;;;;;;;;;5079398;28;21609;-67
2023/10/23 07:02:03;;;;;;;18.95;7.88;;;;;;;;;;5078351;28;20031;-67
2023/10/23 07:04:28;;;;;;;16.98;8.05;;;;;;;;;;5084425;28;20042;-67
2023/10/23 07:06:54;;;;;;;19.33;7.57;;;;;;;;;;5093047;28;20372;-67
2023/10/23 07:09:20;;;;;;;17.30;7.60;;;;;;;;;;5095791;28;20448;-67
2023/10/23 07:11:50;;;;;;;18.00;8.63;;;;;;;;;;5110124;28;20054;-67
2023/10/23 07:14:15;;;;;;;16.45;7.38;;;;;;;;;;5085681;28;20143;-67
2023/10/23 07:16:42;;;;;;;18.88;7.53;;;;;;;;;;5089131;28;20107;-67
2023/10/23 07:19:08;;;;;;;15.98;7.80;;;;;;;;;;5097680;28;20035;-68
2023/10/23 07:21:33;;;;;;;16.27;7.47;;;;;;;;;;5092324;28;20024;-68
2023/10/23 07:23:59;;;;;;;16.58;7.95;;;;;;;;;;5091343;28;20105;-67
2023/10/23 07:26:24;;;;;;;21.38;7.47;;;;;;;;;;5073209;28;20641;-67
2023/10/23 07:28:50;;;;;;;17.77;7.18;;;;;;;;;;5072480;28;20380;-67
2023/10/23 07:31:16;;;;;;;22.20;7.70;;;;;;;;;;5072453;28;20028;-67
2023/10/23 07:33:41;;;;;;;30.88;9.02;;;;;;;;;;5099623;28;20042;-67
2023/10/23 07:36:11;;;;;;;16.80;7.85;;;;;;;;;;5099443;28;20089;-67
2023/10/23 07:38:46;;;;;;;17.30;7.43;;;;;;;;;;5100062;28;20035;-67
2023/10/23 07:41:12;;;;;;;14.93;8.13;;;;;;;;;;5111448;28;20103;-67
2023/10/23 07:43:38;;;;;;;15.27;8.30;;;;;;;;;;5104699;28;20040;-67
2023/10/23 07:46:05;;;;;;;14.07;8.35;;;;;;;;;;5091507;28;20036;-67
2023/10/23 07:48:31;;;;;;;16.83;8.88;;;;;;;;;;5090279;28;20111;-67
2023/10/23 07:50:58;;;;;;;16.58;8.70;;;;;;;;;;5090768;28;20111;-67
2023/10/23 07:53:23;;;;;;;15.18;8.68;;;;;;;;;;5090028;28;20333;-67
2023/10/23 07:55:49;;;;;;;18.15;8.77;;;;;;;;;;5090784;28;20038;-67
2023/10/23 07:58:15;;;;;;;15.73;8.38;;;;;;;;;;5076228;28;20035;-67
2023/10/23 08:00:41;;;;;;;15.23;8.38;;;;;;;;;;5091844;28;20024;-66
2023/10/23 08:03:06;;;;;;;13.23;8.13;;;;;;;;;;5090262;28;20051;-66
2023/10/23 08:05:32;;;;;;;15.82;9.07;;;;;;;;;;5076005;28;20031;-66
2023/10/23 08:07:57;;;;;;;18.33;9.52;;;;;;;;;;5074696;28;20122;-67
2023/10/23 08:10:23;;;;;;;15.25;8.88;;;;;;;;;;5073092;28;20039;-67
2023/10/23 08:12:49;;;;;;;18.15;8.95;;;;;;;;;;5073118;28;20047;-68
2023/10/23 08:15:15;;;;;;;16.33;8.40;;;;;;;;;;5088899;28;20472;-67
2023/10/23 08:17:41;;;;;;;16.77;8.50;;;;;;;;;;5091518;28;20024;-67
2023/10/23 08:20:07;;;;;;;15.27;8.05;;;;;;;;;;5090020;28;20449;-67
2023/10/23 08:22:32;;;;;;;14.43;8.10;;;;;;;;;;5091607;28;20545;-67
2023/10/23 08:24:58;;;;;;;17.50;8.65;;;;;;;;;;5069079;28;20127;-67
2023/10/23 08:27:24;;;;;;;12.68;8.20;;;;;;;;;;5069748;28;20119;-66
2023/10/23 08:29:50;;;;;;;20.52;10.00;;;;;;;;;;5085753;28;20028;-67
2023/10/23 08:32:16;;;;;;;29.55;18.55;;;;;;;;;;5070065;28;20020;-67
2023/10/23 08:34:42;;;;;;;18.23;10.52;;;;;;;;;;5077637;28;20044;-67
2023/10/23 08:37:08;;;;;;;24.00;12.80;;;;;;;;;;5074210;28;20550;-67
2023/10/23 08:39:33;;;;;;;16.02;8.80;;;;;;;;;;5082188;28;20385;-67
2023/10/23 08:42:00;;;;;;;14.63;8.27;;;;;;;;;;5071267;28;20033;-66
2023/10/23 08:44:26;;;;;;;17.48;8.63;;;;;;;;;;5068899;28;20033;-67
2023/10/23 08:46:52;;;;;;;15.88;8.10;;;;;;;;;;5073956;28;20403;-66
2023/10/23 08:49:18;;;;;;;22.73;12.20;;;;;;;;;;5081765;28;20092;-67
2023/10/23 08:51:48;;;;;;;15.57;8.38;;;;;;;;;;5090085;28;20028;-67
2023/10/23 08:54:17;;;;;;;;;;;;;;;;;;5070832;28;20029;-66
2023/10/23 08:56:43;;;;;;;12.45;7.35;;;;;;;;;;5071184;28;19915;-67
2023/10/23 08:59:15;;;;;;;13.70;7.72;;;;;;;;;;5071094;28;20029;-67
2023/10/23 09:01:40;;;;;;;14.80;7.97;;;;;;;;;;5072687;28;20067;-67
2023/10/23 09:04:07;;;;;;;18.05;8.90;;;;;;;;;;5075372;28;20060;-67
2023/10/23 09:06:33;;;;;;;16.60;8.68;;;;;;;;;;5092879;28;20106;-67
2023/10/23 09:08:59;;;;;;;13.05;8.32;;;;;;;;;;5094702;28;20032;-67
2023/10/23 09:11:43;;;;;;;14.80;8.50;;;;;;;;;;5093721;28;20028;-67
2023/10/23 09:14:10;;;;;;;15.07;7.85;;;;;;;;;;5094807;28;20035;-67
2023/10/23 09:16:36;;;;;;;15.30;8.27;;;;;;;;;;5094102;28;20059;-67
2023/10/23 09:19:02;;;;;;;17.17;8.90;;;;;;;;;;5094178;28;20020;-67
2023/10/23 09:21:29;;;;;;;15.30;8.20;;;;;;;;;;5075690;28;20403;-67
2023/10/23 09:23:58;;;;;;;19.20;9.00;;;;;;;;;;5103914;28;20050;-68
2023/10/23 09:26:24;;;;;;;15.90;8.13;;;;;;;;;;5113899;28;20020;-67
2023/10/23 09:28:52;;;;;;;14.77;8.60;;;;;;;;;;5114646;28;20118;-68
2023/10/23 09:31:18;;;;;;;18.10;8.98;;;;;;;;;;5113975;28;20028;-68
2023/10/23 09:33:48;;;;;;;13.63;8.68;;;;;;;;;;5114695;28;20054;-68
2023/10/23 09:36:15;;;;;;;17.92;8.82;;;;;;;;;;5095995;28;20145;-69
2023/10/23 09:38:55;;;;;;;14.90;7.40;;;;;;;;;;5095505;28;20544;-68
2023/10/23 09:41:20;;;;;;;14.80;6.50;;;;;;;;;;5105972;28;20070;-68
2023/10/23 09:43:47;;;;;;;11.73;6.10;;;;;;;;;;5093605;28;20048;-67
2023/10/23 09:46:13;;;;;;;13.13;5.93;;;;;;;;;;5094413;28;20089;-67
2023/10/23 09:48:44;;;;;;;11.55;6.03;;;;;;;;;;5103266;28;20376;-67
2023/10/23 09:51:15;;;;;;;9.55;5.70;;;;;;;;;;5110835;28;20043;-68
2023/10/23 09:53:47;;;;;;;12.60;5.85;;;;;;;;;;5089189;28;20027;-68
2023/10/23 09:56:16;;;;;;;10.82;5.68;;;;;;;;;;5075424;28;20392;-68
2023/10/23 09:58:47;;;;;;;12.07;5.27;;;;;;;;;;5096728;28;20027;-68
2023/10/23 10:01:14;;;;;;;12.95;5.22;;;;;;;;;;5104284;28;20035;-68
2023/10/23 10:03:42;;;;;;;9.75;5.05;;;;;;;;;;5113185;28;20046;-67
2023/10/23 10:06:13;;;;;;;9.40;4.53;;;;;;;;;;5077895;28;20024;-68
2023/10/23 10:08:46;;;;;;;9.65;4.47;;;;;;;;;;5092661;28;20032;-67
2023/10/23 10:11:13;;;;;;;7.63;4.03;;;;;;;;;;5093465;28;20058;-67
2023/10/23 10:13:39;;;;;;;9.07;3.92;;;;;;;;;;5092544;28;20120;-67
2023/10/23 10:16:06;;;;;;;6.78;4.30;;;;;;;;;;5075254;28;20082;-68
2023/10/23 10:18:34;;;;;;;8.38;4.15;;;;;;;;;;5077171;28;20028;-66
2023/10/23 10:21:05;;;;;;;7.82;4.25;;;;;;;;;;5095746;28;20028;-67
2023/10/23 10:23:31;;;;;;;9.93;4.18;;;;;;;;;;5094509;28;20130;-68
2023/10/23 10:25:57;;;;;;;9.02;4.72;;;;;;;;;;5113444;28;20173;-67
2023/10/23 10:28:26;;;;;;;8.98;4.50;;;;;;;;;;5112911;28;20028;-68
2023/10/23 10:30:54;;;;;;;8.60;4.45;;;;;;;;;;5112340;28;20479;-68
2023/10/23 10:33:22;;;;;;;10.85;4.72;;;;;;;;;;5112601;28;20035;-68
2023/10/23 10:35:55;;;;;;;10.55;5.20;;;;;;;;;;5113538;28;20084;-67
2023/10/23 10:38:22;;;;;;;8.23;4.68;;;;;;;;;;5094198;28;20032;-68
2023/10/23 10:41:12;;;;;;;10.35;4.47;;;;;;;;;;5113060;28;20035;-68
2023/10/23 10:43:38;;;;;;;9.73;4.40;;;;;;;;;;5094118;28;20042;-67
2023/10/23 10:46:15;;;;;;;9.95;4.70;;;;;;;;;;5094834;28;20028;-68
2023/10/23 10:48:44;;;;;;;7.63;4.50;;;;;;;;;;5093125;28;20106;-68
2023/10/23 10:51:11;;;;;;;8.77;3.85;;;;;;;;;;5113014;28;20030;-67
2023/10/23 10:53:42;;;;;;;7.53;3.90;;;;;;;;;;5086013;28;20066;-67
2023/10/23 10:56:09;;;;;;;9.77;4.57;;;;;;;;;;5092586;28;20507;-67
2023/10/23 10:58:36;;;;;;;9.90;3.53;;;;;;;;;;5073429;28;20032;-67
2023/10/23 11:01:03;;;;;;;6.80;3.60;;;;;;;;;;5109305;28;20098;-68
2023/10/23 11:03:31;;;;;;;10.18;3.72;;;;;;;;;;5111560;28;20032;-69
2023/10/23 11:05:57;;;;;;;7.95;3.63;;;;;;;;;;5086033;28;20120;-69
2023/10/23 11:08:23;;;;;;;5.85;3.10;;;;;;;;;;5073365;28;20464;-68
2023/10/23 11:10:48;;;;;;;6.32;3.15;;;;;;;;;;5101414;28;20020;-68
2023/10/23 11:13:14;;;;;;;4.95;2.97;;;;;;;;;;5112698;28;20028;-68
2023/10/23 11:15:41;;;;;;;5.50;3.38;;;;;;;;;;5093485;28;20089;-69
2023/10/23 11:18:06;;;;;;;5.43;3.30;;;;;;;;;;5112559;28;20468;-68
2023/10/23 11:20:32;;;;;;;6.35;3.47;;;;;;;;;;5093280;28;20027;-68
2023/10/23 11:22:57;;;;;;;7.53;3.30;;;;;;;;;;5101267;28;20087;-67
2023/10/23 11:25:23;;;;;;;8.68;3.30;;;;;;;;;;5090701;28;20124;-69
2023/10/23 11:27:51;;;;;;;9.00;3.65;;;;;;;;;;5091845;28;20032;-68
2023/10/23 11:30:17;;;;;;;6.80;2.80;;;;;;;;;;5091932;28;20056;-68
2023/10/23 11:32:44;;;;;;;6.82;3.03;;;;;;;;;;5090964;28;20566;-68
2023/10/23 11:35:10;;;;;;;7.05;3.00;;;;;;;;;;5091970;28;20122;-66
2023/10/23 11:37:41;;;;;;;7.20;3.38;;;;;;;;;;5091213;28;20059;-66
2023/10/23 11:40:09;;;;;;;7.03;3.05;;;;;;;;;;5092627;28;20028;-66
2023/10/23 11:42:46;;;;;;;5.65;2.72;;;;;;;;;;5091017;28;20031;-66
2023/10/23 11:45:12;;;;;;;6.97;3.30;;;;;;;;;;5091779;28;20365;-66
2023/10/23 11:47:38;;;;;;;6.82;3.40;;;;;;;;;;5090831;28;20027;-67
2023/10/23 11:50:13;;;;;;;6.38;3.22;;;;;;;;;;5091634;28;20024;-67
2023/10/23 11:52:41;;;;;;;5.75;3.40;;;;;;;;;;5090708;28;20476;-67
2023/10/23 11:55:08;;;;;;;7.75;3.30;;;;;;;;;;5092163;28;20085;-66
2023/10/23 11:57:33;;;;;;;5.40;3.03;;;;;;;;;;5090797;28;20062;-67
2023/10/23 12:00:06;;;;;;;6.30;3.25;;;;;;;;;;5091256;28;20079;-66
2023/10/23 12:02:32;;;;;;;5.95;3.22;;;;;;;;;;5072782;28;20476;-67
2023/10/23 12:04:57;;;;;;;6.95;3.55;;;;;;;;;;5090676;28;20028;-67
2023/10/23 12:07:23;;;;;;;6.65;3.90;;;;;;;;;;5090995;28;20034;-67
2023/10/23 12:09:48;;;;;;;8.95;3.70;;;;;;;;;;5100006;28;20031;-67
2023/10/23 12:12:14;;;;;;;7.88;3.50;;;;;;;;;;5108147;28;20035;-67
2023/10/23 12:14:39;;;;;;;7.35;3.33;;;;;;;;;;5095011;28;20559;-67
2023/10/23 12:17:04;;;;;;;6.88;3.55;;;;;;;;;;5090610;28;20032;-67
2023/10/23 12:19:30;;;;;;;7.72;3.67;;;;;;;;;;5085881;28;20035;-67
2023/10/23 12:21:55;;;;;;;6.63;3.83;;;;;;;;;;5102212;28;20020;-67
2023/10/23 12:24:21;;;;;;;5.97;3.58;;;;;;;;;;5072880;28;20044;-67
2023/10/23 12:26:47;;;;;;;6.47;3.70;;;;;;;;;;5106580;28;20114;-66
2023/10/23 12:29:15;;;;;;;6.60;3.25;;;;;;;;;;5111068;28;20310;-66
2023/10/23 12:31:40;;;;;;;7.53;3.90;;;;;;;;;;5110400;28;20122;-67
2023/10/23 12:34:06;;;;;;;7.82;4.00;;;;;;;;;;5111479;28;20114;-66
2023/10/23 12:36:31;;;;;;;6.20;3.80;;;;;;;;;;5114278;28;20066;-67
2023/10/23 12:38:56;;;;;;;8.43;3.53;;;;;;;;;;5099646;28;20031;-67
2023/10/23 12:41:22;;;;;;;8.48;3.58;;;;;;;;;;5094735;28;20035;-66
2023/10/23 12:43:47;;;;;;;6.50;3.08;;;;;;;;;;5094637;28;20512;-67
2023/10/23 12:46:13;;;;;;;8.13;3.58;;;;;;;;;;5095195;28;20491;-66
2023/10/23 12:48:43;;;;;;;6.25;3.88;;;;;;;;;;5094154;28;20452;-67
2023/10/23 12:51:09;;;;;;;8.35;4.10;;;;;;;;;;5094840;28;20383;-66
2023/10/23 12:53:34;;;;;;;7.63;3.72;;;;;;;;;;5093803;28;20043;-66
2023/10/23 12:55:59;;;;;;;7.57;3.85;;;;;;;;;;5076569;28;20039;-66
2023/10/23 12:58:25;;;;;;;6.97;3.55;;;;;;;;;;5094369;28;20020;-67
2023/10/23 13:00:50;;;;;;;7.10;3.67;;;;;;;;;;5093856;28;20433;-67
2023/10/23 13:03:16;;;;;;;5.88;3.60;;;;;;;;;;5095282;28;20036;-66
2023/10/23 13:05:41;;;;;;;6.93;3.65;;;;;;;;;;5075559;28;20464;-66
2023/10/23 13:08:07;;;;;;;6.93;3.50;;;;;;;;;;5094667;28;20449;-66
2023/10/23 13:10:33;;;;;;;5.45;3.50;;;;;;;;;;5075458;28;20024;-66
2023/10/23 13:12:58;;;;;;;6.22;3.58;;;;;;;;;;5094184;28;20028;-66
2023/10/23 13:15:24;;;;;;;5.05;3.28;;;;;;;;;;5094314;28;20081;-66
2023/10/23 13:17:53;;;;;;;6.50;3.40;;;;;;;;;;5093656;28;20400;-66
2023/10/23 13:20:19;;;;;;;5.25;3.22;;;;;;;;;;5093942;28;20092;-67
2023/10/23 13:22:46;;;;;;;4.63;3.33;;;;;;;;;;5093470;28;20024;-67
2023/10/23 13:25:13;;;;;;;6.05;3.30;;;;;;;;;;5085411;28;20035;-66
2023/10/23 13:27:38;;;;;;;7.45;3.30;;;;;;;;;;5111014;28;20123;-66
2023/10/23 13:30:05;;;;;;;4.45;3.08;;;;;;;;;;5103759;28;20099;-66
2023/10/23 13:32:30;;;;;;;7.38;3.08;;;;;;;;;;5091706;28;20038;-66
2023/10/23 13:34:56;;;;;;;12.30;3.20;;;;;;;;;;5111083;28;20028;-67
2023/10/23 13:37:22;;;;;;;6.18;3.30;;;;;;;;;;5094758;28;20144;-66
2023/10/23 13:39:47;;;;;;;5.13;3.08;;;;;;;;;;5093426;28;20028;-66
2023/10/23 13:42:12;;;;;;;6.45;3.28;;;;;;;;;;5075632;28;20035;-66
2023/10/23 13:44:38;;;;;;;5.30;3.33;;;;;;;;;;5092838;28;20465;-66
2023/10/23 13:47:03;;;;;;;6.00;3.38;;;;;;;;;;5077823;28;20023;-66
2023/10/23 13:49:29;;;;;;;7.50;3.78;;;;;;;;;;5113571;28;20019;-66
2023/10/23 13:51:54;;;;;;;6.40;3.58;;;;;;;;;;5095326;28;20035;-66
2023/10/23 13:54:20;;;;;;;7.20;3.75;;;;;;;;;;5112976;28;20043;-67
2023/10/23 13:56:47;;;;;;;4.82;3.58;;;;;;;;;;5113195;28;20028;-66
2023/10/23 13:59:12;;;;;;;5.65;3.67;;;;;;;;;;5095714;28;20518;-66
2023/10/23 14:01:38;;;;;;;5.35;3.47;;;;;;;;;;5113143;28;20039;-66
2023/10/23 14:04:03;;;;;;;6.60;3.78;;;;;;;;;;5114478;28;20062;-67
2023/10/23 14:06:29;;;;;;;7.00;3.70;;;;;;;;;;5113644;28;20036;-66
2023/10/23 14:08:54;;;;;;;6.30;3.70;;;;;;;;;;5113002;28;20029;-66
2023/10/23 14:11:20;;;;;;;5.97;3.72;;;;;;;;;;5113188;28;20028;-67
2023/10/23 14:13:46;;;;;;;7.07;3.90;;;;;;;;;;5112650;28;20059;-67
2023/10/23 14:16:12;;;;;;;6.15;3.70;;;;;;;;;;5113781;28;20062;-66
2023/10/23 14:18:37;;;;;;;7.72;4.00;;;;;;;;;;5112994;28;20019;-66
2023/10/23 14:21:04;;;;;;;5.65;3.97;;;;;;;;;;5113462;28;20039;-66
2023/10/23 14:23:30;;;;;;;8.75;4.28;;;;;;;;;;5110696;28;20063;-66
2023/10/23 14:25:55;;;;;;;7.13;4.07;;;;;;;;;;5092922;28;20028;-67
2023/10/23 14:28:21;;;;;;;8.05;4.13;;;;;;;;;;5075838;28;20028;-67
2023/10/23 14:30:48;;;;;;;8.82;4.40;;;;;;;;;;5091930;28;20495;-67